Terminal Aerodrome Forecast
Issued by NWS Wakefield, VA

Home | Current Version | Previous Version | Text Only | Print | Product List | Glossary On
Versions: 1 2 3 4 5 6 7 8 9 10 11 12 13 14 15 16 17 18 19 20 21 22 23
000
FTUS41 KAKQ 110200 AAC
TAFSBY
TAF AMD
KSBY 110220Z 1102/1124 VRB03KT P6SM SCT005 OVC110
      TEMPO 1102/1106 BKN005
     FM110600 00000KT 2SM BR OVC007
     FM111500 07003KT 5SM BR BKN020
     FM111800 07005KT P6SM SCT030 BKN040=

USA.gov is the U.S. government's official web portal to all federal, state and local government web resources and services.